Time;durP1;ratioP1;P1;durP2;ratioP2;P2;SDS_P1;SDS_P2;PMS_P1;PMS_P2;Temp;Humidity;BMP_temperature;BMP_pressure;BME280_temperature;BME280_humidity;BME280_pressure;Samples;Min_cycle;Max_cycle;Signal;HPM_P1;HPM_P2
2023/03/15 00:00:38;;;;;;;;;2.00;0.50;;;;;22.72;34.05;100988.09;5097251;27;45931;-76
2023/03/15 00:03:04;;;;;;;;;2.00;2.00;;;;;22.73;33.66;100992.50;5102065;27;46251;-76
2023/03/15 00:05:30;;;;;;;;;2.00;2.00;;;;;22.73;33.52;100995.16;5081680;27;45539;-76
2023/03/15 00:07:57;;;;;;;;;1.25;1.00;;;;;22.72;33.77;100993.44;5090999;27;45442;-76
2023/03/15 00:10:22;;;;;;;;;4.00;4.00;;;;;22.70;33.29;100994.50;5085100;27;45666;-76
2023/03/15 00:12:47;;;;;;;;;2.00;2.00;;;;;22.70;33.92;100989.16;5105157;27;75389;-76
2023/03/15 00:15:14;;;;;;;;;1.50;1.50;;;;;22.75;33.36;100993.22;5102281;27;45413;-76
2023/03/15 00:17:39;;;;;;;;;5.00;3.00;;;;;22.69;33.85;100976.81;5095738;27;45400;-76
2023/03/15 00:20:05;;;;;;;;;3.00;2.00;;;;;22.75;33.64;100992.34;5110097;27;45388;-76
2023/03/15 00:22:31;;;;;;;;;2.00;2.00;;;;;22.75;33.95;100990.56;5117777;27;45527;-76
2023/03/15 00:24:56;;;;;;;;;2.00;2.00;;;;;22.72;33.38;100981.94;5092922;27;63558;-76
2023/03/15 00:27:21;;;;;;;;;4.00;2.50;;;;;22.66;33.62;100977.03;5077555;27;55690;-76
2023/03/15 00:29:47;;;;;;;;;3.00;2.00;;;;;22.74;33.59;100990.66;5091712;27;45347;-76
2023/03/15 00:32:12;;;;;;;;;6.00;2.75;;;;;22.74;33.68;100993.34;5102407;27;45403;-75
2023/03/15 00:34:37;;;;;;;;;2.00;2.00;;;;;22.70;33.84;100989.16;5091999;27;45241;-75
2023/03/15 00:37:03;;;;;;;;;3.00;1.25;;;;;22.67;33.43;100978.75;5097330;27;71332;-75
2023/03/15 00:39:28;;;;;;;;;1.00;1.00;;;;;22.73;33.47;100991.63;5087136;27;48930;-75
2023/03/15 00:41:55;;;;;;;;;3.25;1.25;;;;;22.74;33.20;100993.34;5121688;27;45430;-75
2023/03/15 00:44:22;;;;;;;;;2.25;1.75;;;;;22.70;33.17;100987.38;5097071;27;45532;-75
2023/03/15 00:46:47;;;;;;;;;2.00;2.00;;;;;22.72;33.16;100993.44;5112717;27;45536;-76
2023/03/15 00:49:13;;;;;;;;;1.50;1.50;;;;;22.73;33.76;101002.28;5070808;27;47086;-76
2023/03/15 00:51:38;;;;;;;;;3.00;1.50;;;;;22.66;33.35;100990.38;5092331;27;57263;-76
2023/03/15 00:54:03;;;;;;;;;1.75;1.75;;;;;22.73;33.51;101007.63;5091576;27;45444;-75
2023/03/15 00:56:29;;;;;;;;;2.00;2.00;;;;;22.69;33.30;101003.50;5073332;27;45523;-75
2023/03/15 00:58:54;;;;;;;;;1.50;1.50;;;;;22.70;33.23;101013.19;5106383;27;46291;-75
2023/03/15 01:01:25;;;;;;;;;2.25;2.00;;;;;22.71;33.34;101005.06;5095889;27;45426;-75
2023/03/15 01:03:51;;;;;;;;;1.50;1.50;;;;;22.67;33.15;100997.44;5114313;27;45499;-75
2023/03/15 01:06:25;;;;;;;;;2.00;2.00;;;;;22.68;33.54;101016.00;5088608;27;46106;-75
2023/03/15 01:08:51;;;;;;;;;1.00;1.00;;;;;22.68;33.39;101013.31;5095688;27;45379;-76
2023/03/15 01:11:21;;;;;;;;;1.75;1.75;;;;;22.69;33.07;101016.84;5115707;27;45525;-76
2023/03/15 01:13:46;;;;;;;;;1.50;1.50;;;;;22.68;33.24;101020.44;5084097;27;45482;-76
2023/03/15 01:16:13;;;;;;;;;1.50;1.50;;;;;22.67;33.16;101014.28;5103249;27;68093;-76
2023/03/15 01:18:40;;;;;;;;;1.75;1.75;;;;;22.68;33.60;101025.78;5098951;27;46692;-76
2023/03/15 01:21:07;;;;;;;;;3.75;1.25;;;;;22.67;33.25;101027.63;5078438;27;45544;-74
2023/03/15 01:23:32;;;;;;;;;1.25;1.25;;;;;22.63;33.49;101023.47;5085924;27;45327;-75
2023/03/15 01:26:02;;;;;;;;;2.00;1.00;;;;;22.67;33.09;101034.78;5084073;27;45525;-75
2023/03/15 01:28:27;;;;;;;;;1.00;1.00;;;;;22.66;33.41;101030.38;5090426;27;46286;-75
2023/03/15 01:30:53;;;;;;;;;2.50;2.50;;;;;22.64;33.51;101019.81;5079945;27;45271;-76
2023/03/15 01:33:19;;;;;;;;;1.75;1.75;;;;;22.64;32.99;101030.50;5096714;27;45893;-77
2023/03/15 01:35:44;;;;;;;;;2.25;1.50;;;;;22.66;33.57;101031.22;5098329;27;46262;-77
2023/03/15 01:38:10;;;;;;;;;2.25;2.00;;;;;22.62;33.08;101021.75;5101323;27;45522;-76
2023/03/15 01:40:42;;;;;;;;;2.00;2.00;;;;;22.65;33.35;101028.72;5098638;27;46254;-76
2023/03/15 01:43:07;;;;;;;;;2.00;2.00;;;;;22.65;33.39;101034.88;5114334;27;45354;-76
2023/03/15 01:45:54;;;;;;;;;2.00;2.00;;;;;22.64;32.91;101032.31;5112433;27;45380;-76
2023/03/15 01:48:22;;;;;;;;;1.75;0.50;;;;;22.64;32.94;101037.66;5110025;27;47962;-76
2023/03/15 01:50:48;;;;;;;;;1.50;1.50;;;;;22.60;33.34;101034.38;5089307;27;45931;-75
2023/03/15 01:53:14;;;;;;;;;3.25;1.00;;;;;22.62;33.19;101037.75;5109533;27;60949;-75
2023/03/15 01:55:40;;;;;;;;;1.50;1.00;;;;;22.61;33.49;101036.09;5086682;27;45596;-76
2023/03/15 01:58:06;;;;;;;;;3.00;1.25;;;;;22.60;32.91;101031.69;5088921;27;65774;-76
2023/03/15 02:00:31;;;;;;;;;2.00;2.00;;;;;22.60;32.81;101030.84;5088958;27;72658;-76
2023/03/15 02:03:02;;;;;;;;;2.00;2.00;;;;;22.60;33.22;101036.19;5088665;27;45464;-76
2023/03/15 02:05:31;;;;;;;;;2.00;1.25;;;;;22.61;33.22;101037.88;5088540;27;45750;-76
2023/03/15 02:07:57;;;;;;;;;1.00;1.00;;;;;22.60;32.99;101037.03;5070565;27;47555;-76
2023/03/15 02:10:29;;;;;;;;;1.00;1.00;;;;;22.58;33.32;101038.97;5108735;27;45464;-76
2023/03/15 02:12:55;;;;;;;;;1.50;1.50;;;;;22.60;33.45;101045.03;5113871;27;45317;-76
2023/03/15 02:15:20;;;;;;;;;1.00;1.00;;;;;22.57;32.78;101039.91;5091223;27;45553;-76
2023/03/15 02:17:47;;;;;;;;;2.75;1.00;;;;;22.52;32.93;101028.72;5089548;27;74570;-76
2023/03/15 02:20:26;;;;;;;;;0.75;0.75;;;;;22.58;32.99;101035.47;5093994;27;45588;-76
2023/03/15 02:22:54;;;;;;;;;2.75;0.75;;;;;22.58;32.88;101032.78;5108815;27;45399;-76
2023/03/15 02:25:28;;;;;;;;;2.50;1.00;;;;;22.56;33.16;101025.72;5099325;27;45294;-76
2023/03/15 02:27:55;;;;;;;;;1.00;1.00;;;;;22.55;33.15;101025.84;5090332;27;48437;-76
2023/03/15 02:30:20;;;;;;;;;1.50;1.50;;;;;22.53;33.19;101027.78;5080515;27;45615;-76
2023/03/15 02:32:46;;;;;;;;;2.00;2.00;;;;;22.54;33.33;101029.47;5094852;27;57839;-76
2023/03/15 02:35:11;;;;;;;;;3.25;1.00;;;;;22.50;33.10;101018.16;5087390;27;45720;-76
2023/03/15 02:37:37;;;;;;;;;2.00;2.00;;;;;22.54;32.91;101034.78;5104080;27;45421;-76
2023/03/15 02:40:15;;;;;;;;;1.00;1.00;;;;;22.54;33.24;101030.34;5100247;27;45480;-76
2023/03/15 02:42:41;;;;;;;;;1.00;1.00;;;;;22.52;32.60;101026.94;5098458;27;45395;-76
2023/03/15 02:45:07;;;;;;;;;1.50;1.50;;;;;22.50;32.82;101014.66;5089752;27;45439;-76
2023/03/15 02:47:32;;;;;;;;;2.25;1.00;;;;;22.52;32.85;101023.38;5080198;27;46999;-75
2023/03/15 02:49:58;;;;;;;;;3.00;1.75;;;;;22.49;32.74;101010.31;5092293;27;45463;-76
2023/03/15 02:52:24;;;;;;;;;1.00;1.00;;;;;22.51;32.85;101017.22;5086394;27;45351;-76
2023/03/15 02:54:49;;;;;;;;;1.75;1.50;;;;;22.49;33.10;101020.97;5104668;27;45249;-76
2023/03/15 02:57:17;;;;;;;;;1.50;1.50;;;;;22.50;32.78;101023.50;5097743;27;56588;-76
2023/03/15 02:59:42;;;;;;;;;1.25;1.00;;;;;22.51;33.00;101019.88;5080696;27;45672;-76
2023/03/15 03:02:10;;;;;;;;;1.00;1.00;;;;;22.51;33.05;101029.72;5112926;27;45284;-76
2023/03/15 03:04:36;;;;;;;;;0.75;0.75;;;;;22.51;33.06;101035.03;5090897;27;45751;-76
2023/03/15 03:07:02;;;;;;;;;3.00;0.75;;;;;22.48;33.20;101029.91;5094430;27;46237;-76
2023/03/15 03:09:28;;;;;;;;;1.50;1.00;;;;;22.49;32.91;101035.16;5118700;27;45729;-76
2023/03/15 03:11:53;;;;;;;;;1.00;1.00;;;;;22.49;32.67;101040.47;5114537;27;68072;-77
2023/03/15 03:14:18;;;;;;;;;1.50;1.50;;;;;22.49;33.12;101048.47;5107045;27;45323;-76
2023/03/15 03:16:44;;;;;;;;;1.25;1.25;;;;;22.49;32.54;101047.63;5091900;27;46614;-76
2023/03/15 03:19:11;;;;;;;;;2.00;0.75;;;;;22.47;33.07;101046.88;5102325;27;45787;-75
2023/03/15 03:21:37;;;;;;;;;1.00;1.00;;;;;22.47;32.95;101054.88;5114339;27;45396;-76
2023/03/15 03:24:02;;;;;;;;;0.50;0.50;;;;;22.45;32.78;101046.13;5082073;27;45246;-76
2023/03/15 03:26:31;;;;;;;;;1.00;1.00;;;;;22.44;32.83;101044.44;5086615;27;74267;-76
2023/03/15 03:28:57;;;;;;;;;0.00;0.00;;;;;22.43;33.02;101048.06;5091177;27;45671;-76
2023/03/15 03:31:24;;;;;;;;;1.00;0.00;;;;;22.46;33.08;101048.69;5076499;27;45457;-76
2023/03/15 03:33:50;;;;;;;;;2.00;2.00;;;;;22.47;32.88;101055.75;5102858;27;45255;-76
2023/03/15 03:36:16;;;;;;;;;1.00;1.00;;;;;22.46;32.58;101051.38;5081828;27;45319;-76
2023/03/15 03:38:42;;;;;;;;;1.00;1.00;;;;;22.46;32.95;101050.53;5106073;27;45422;-76
2023/03/15 03:41:09;;;;;;;;;1.00;1.00;;;;;22.46;32.62;101050.53;5089608;27;45284;-76
2023/03/15 03:43:35;;;;;;;;;3.75;1.00;;;;;22.42;32.52;101044.56;5103605;27;45473;-76
2023/03/15 03:46:00;;;;;;;;;0.25;0.25;;;;;22.45;33.05;101056.81;5104540;27;46904;-76
2023/03/15 03:48:25;;;;;;;;;1.00;1.00;;;;;22.40;32.78;101042.94;5110634;27;73161;-76
2023/03/15 03:50:51;;;;;;;;;0.50;0.50;;;;;22.44;33.01;101049.78;5113959;27;45365;-76
2023/03/15 03:53:16;;;;;;;;;1.00;1.00;;;;;22.41;32.54;101044.66;5119021;27;71541;-77
2023/03/15 03:55:41;;;;;;;;;1.00;1.00;;;;;22.43;32.61;101050.72;5099021;27;71998;-76
2023/03/15 03:58:07;;;;;;;;;0.00;0.00;;;;;22.43;32.71;101054.25;5108355;27;72459;-76
2023/03/15 04:00:33;;;;;;;;;0.00;0.00;;;;;22.40;32.85;101045.59;5109263;27;45432;-76
2023/03/15 04:03:00;;;;;;;;;1.00;1.00;;;;;22.42;32.69;101057.03;5099743;27;45456;-76
2023/03/15 04:05:26;;;;;;;;;2.00;1.00;;;;;22.40;32.59;101056.28;5092906;27;46116;-76
2023/03/15 04:07:52;;;;;;;;;1.00;0.00;;;;;22.42;32.43;101062.38;5086741;27;45260;-76
2023/03/15 04:10:17;;;;;;;;;0.75;0.50;;;;;22.37;32.71;101054.69;5105118;27;69234;-75
2023/03/15 04:12:43;;;;;;;;;0.50;0.50;;;;;22.37;32.59;101068.03;5091907;27;51812;-76
2023/03/15 04:15:10;;;;;;;;;2.25;2.00;;;;;22.41;32.76;101076.66;5075932;27;47273;-76
2023/03/15 04:17:36;;;;;;;;;1.00;1.00;;;;;22.40;32.63;101069.63;5083863;27;45602;-76
2023/03/15 04:20:05;;;;;;;;;1.50;0.50;;;;;22.40;32.88;101070.50;5100018;27;45283;-75
2023/03/15 04:22:33;;;;;;;;;0.00;0.00;;;;;22.36;32.81;101064.53;5108848;27;45551;-76
2023/03/15 04:25:00;;;;;;;;;0.25;0.25;;;;;22.39;33.01;101065.25;5114593;27;46584;-76
2023/03/15 04:27:26;;;;;;;;;0.00;0.00;;;;;22.37;32.93;101063.53;5076390;27;45737;-76
2023/03/15 04:29:52;;;;;;;;;1.50;1.00;;;;;22.37;33.02;101066.22;5106213;27;45523;-75
2023/03/15 04:32:17;;;;;;;;;1.00;1.00;;;;;22.36;32.90;101050.31;5078037;27;46352;-76
2023/03/15 04:34:42;;;;;;;;;2.00;0.00;;;;;22.36;32.50;101042.31;5083949;27;47538;-76
2023/03/15 04:37:08;;;;;;;;;1.00;1.00;;;;;22.32;32.97;101054.16;5108966;27;64759;-76
2023/03/15 04:39:33;;;;;;;;;0.75;0.75;;;;;22.35;32.74;101051.28;5114565;27;45392;-76
2023/03/15 04:41:58;;;;;;;;;1.00;0.00;;;;;22.32;32.34;101055.00;5082488;27;69462;-76
2023/03/15 04:44:25;;;;;;;;;0.00;0.00;;;;;22.33;32.66;101047.88;5082397;27;46082;-76
2023/03/15 04:46:51;;;;;;;;;0.75;0.75;;;;;22.35;32.82;101061.97;5081391;27;45892;-76
2023/03/15 04:49:16;;;;;;;;;0.00;0.00;;;;;22.34;32.82;101066.41;5093706;27;45275;-76
2023/03/15 04:51:41;;;;;;;;;0.50;0.00;;;;;22.32;32.72;101071.00;5113544;27;47440;-76
2023/03/15 04:54:07;;;;;;;;;2.00;1.00;;;;;22.34;32.34;101068.25;5083289;27;74619;-76
2023/03/15 04:56:32;;;;;;;;;1.00;1.00;;;;;22.33;32.48;101070.06;5104737;27;66635;-76
2023/03/15 04:58:57;;;;;;;;;0.00;0.00;;;;;22.32;32.62;101072.84;5100247;27;45327;-77
2023/03/15 05:01:28;;;;;;;;;0.75;0.75;;;;;22.30;32.42;101062.28;5122065;27;45433;-76
2023/03/15 05:03:54;;;;;;;;;2.00;2.00;;;;;22.31;32.76;101074.66;5104961;27;45951;-76
2023/03/15 05:06:19;;;;;;;;;1.00;1.00;;;;;22.28;32.85;101074.88;5085004;27;45520;-76
2023/03/15 05:08:45;;;;;;;;;1.00;1.00;;;;;22.29;32.29;101083.72;5088567;27;69278;-76
2023/03/15 05:11:11;;;;;;;;;1.00;1.00;;;;;22.30;32.36;101088.94;5118820;27;45428;-76
2023/03/15 05:13:36;;;;;;;;;1.00;1.00;;;;;22.31;32.76;101090.66;5099831;27;45300;-76
2023/03/15 05:16:02;;;;;;;;;0.50;0.25;;;;;22.30;32.53;101098.75;5094156;27;69633;-76
2023/03/15 05:18:27;;;;;;;;;1.00;0.50;;;;;22.30;32.71;101102.28;5086040;27;45495;-76
2023/03/15 05:20:54;;;;;;;;;3.25;1.00;;;;;22.30;32.88;101101.44;5118354;27;45667;-76
2023/03/15 05:23:22;;;;;;;;;0.50;0.50;;;;;22.27;32.86;101093.63;5104453;27;45938;-76
2023/03/15 05:25:52;;;;;;;;;1.00;0.00;;;;;22.28;32.88;101093.53;5112415;27;45839;-76
2023/03/15 05:28:22;;;;;;;;;0.00;0.00;;;;;22.29;32.82;101094.38;5084356;27;45347;-76
2023/03/15 05:30:47;;;;;;;;;2.75;1.00;;;;;22.29;32.67;101091.72;5089459;27;45550;-77
2023/03/15 05:33:13;;;;;;;;;0.75;0.75;;;;;22.28;32.44;101090.88;5080592;27;48200;-77
2023/03/15 05:35:38;;;;;;;;;0.00;0.00;;;;;22.29;32.70;101086.38;5110700;27;45472;-76
2023/03/15 05:38:04;;;;;;;;;1.00;1.00;;;;;22.24;32.71;101092.03;5093745;27;45528;-75
2023/03/15 05:40:31;;;;;;;;;2.00;0.00;;;;;22.25;32.42;101092.88;5114498;27;45465;-76
2023/03/15 05:42:57;;;;;;;;;0.00;0.00;;;;;22.24;32.42;101088.47;5091995;27;47995;-76
2023/03/15 05:45:22;;;;;;;;;1.00;1.00;;;;;22.25;32.67;101093.72;5090719;27;45563;-76
2023/03/15 05:47:48;;;;;;;;;1.00;1.00;;;;;22.27;32.85;101102.47;5093546;27;45319;-76
2023/03/15 05:50:13;;;;;;;;;0.50;0.00;;;;;22.25;32.65;101101.72;5067157;27;67849;-76
2023/03/15 05:52:38;;;;;;;;;1.00;1.00;;;;;22.24;32.57;101096.47;5092757;27;47317;-77
2023/03/15 05:55:04;;;;;;;;;1.00;0.00;;;;;22.23;32.55;101097.47;5083227;27;61493;-77
2023/03/15 05:57:30;;;;;;;;;2.00;0.00;;;;;22.23;32.62;101097.47;5084435;27;45586;-77
2023/03/15 05:59:55;;;;;;;;;0.00;0.00;;;;;22.26;32.49;101099.91;5078852;27;45411;-76
2023/03/15 06:02:21;;;;;;;;;0.00;0.00;;;;;22.23;32.77;101105.47;5095794;27;47568;-76
2023/03/15 06:04:46;;;;;;;;;0.50;0.50;;;;;22.24;32.41;101113.34;5107850;27;45345;-75
2023/03/15 06:07:11;;;;;;;;;0.00;0.00;;;;;22.21;32.78;101116.22;5110024;27;60151;-75
2023/03/15 06:09:36;;;;;;;;;0.00;0.00;;;;;22.21;32.29;101110.91;5087893;27;68212;-76
2023/03/15 06:12:02;;;;;;;;;2.50;0.00;;;;;22.22;32.89;101112.56;5114160;27;45930;-76
2023/03/15 06:14:28;;;;;;;;;2.50;0.50;;;;;22.23;32.87;101114.31;5069049;27;45526;-76
2023/03/15 06:16:53;;;;;;;;;1.00;1.00;;;;;22.24;32.81;101115.13;5105340;27;66840;-76
2023/03/15 06:19:20;;;;;;;;;0.00;0.00;;;;;22.23;32.59;101108.13;5110339;27;45524;-75
2023/03/15 06:21:45;;;;;;;;;0.00;0.00;;;;;22.25;32.53;101108.88;5097924;27;45457;-75
2023/03/15 06:24:10;;;;;;;;;2.00;0.00;;;;;22.28;32.77;101116.69;5094252;27;45651;-76
2023/03/15 06:26:36;;;;;;;;;0.00;0.00;;;;;22.28;32.56;101116.69;5106021;27;66646;-76
2023/03/15 06:29:01;;;;;;;;;0.00;0.00;;;;;22.30;32.88;101125.44;5084450;27;45281;-76
2023/03/15 06:31:26;;;;;;;;;2.00;0.00;;;;;22.21;32.58;101110.06;5087996;27;45263;-77
2023/03/15 06:33:52;;;;;;;;;0.00;0.00;;;;;22.31;33.07;101132.44;5101443;27;45724;-77
2023/03/15 06:36:17;;;;;;;;;3.00;0.25;;;;;22.30;32.95;101126.28;5093958;27;64873;-80
2023/03/15 06:38:43;;;;;;;;;0.00;0.00;;;;;22.28;33.08;101136.19;5098732;27;45651;-74
2023/03/15 06:41:08;;;;;;;;;5.00;5.00;;;;;22.29;32.41;101142.38;5084974;27;47447;-78
2023/03/15 06:43:34;;;;;;;;;5.75;3.25;;;;;22.24;32.28;101137.34;5089407;27;45511;-76
2023/03/15 06:45:59;;;;;;;;;6.00;3.75;;;;;22.21;32.03;101145.56;5074654;27;45812;-76
2023/03/15 06:48:26;;;;;;;;;6.50;4.00;;;;;22.18;31.65;101146.59;5116599;27;45556;-78
2023/03/15 06:50:51;;;;;;;;;6.25;4.00;;;;;22.14;31.35;101144.28;5090394;27;46591;-75
2023/03/15 06:53:17;;;;;;;;;6.50;4.00;;;;;22.04;31.38;101143.19;5091564;27;46666;-74
2023/03/15 06:55:43;;;;;;;;;3.00;2.50;;;;;22.00;30.96;101147.88;5083516;27;45433;-74
2023/03/15 06:58:08;;;;;;;;;2.50;2.00;;;;;21.93;31.09;101144.78;5103425;27;45469;-74
2023/03/15 07:00:34;;;;;;;;;3.25;2.75;;;;;21.84;30.80;101141.91;5091766;27;75422;-75
2023/03/15 07:02:59;;;;;;;;;6.50;1.50;;;;;21.78;30.83;101152.00;5088282;27;45387;-75
2023/03/15 07:05:24;;;;;;;;;3.50;2.00;;;;;21.71;30.58;101144.53;5090683;27;69398;-74
2023/03/15 07:07:50;;;;;;;;;4.00;3.00;;;;;21.66;30.81;101142.19;5098336;27;46075;-76
2023/03/15 07:10:15;;;;;;;;;2.00;1.75;;;;;21.60;30.52;101148.78;5108327;27;46102;-75
2023/03/15 07:12:41;;;;;;;;;5.25;2.50;;;;;21.53;30.47;101143.94;5108867;27;46905;-76
2023/03/15 07:15:15;;;;;;;;;3.75;2.00;;;;;21.42;30.80;101144.63;5106032;27;66674;-75
2023/03/15 07:17:40;;;;;;;;;2.00;2.00;;;;;21.34;30.68;101141.66;5094507;27;45820;-77
2023/03/15 07:20:07;;;;;;;;;1.25;1.25;;;;;21.35;30.82;101153.97;5095661;27;45263;-77
2023/03/15 07:22:33;;;;;;;;;4.50;2.00;;;;;21.36;31.17;101150.38;5110294;27;45398;-77
2023/03/15 07:24:58;;;;;;;;;3.50;2.00;;;;;21.33;31.10;101145.25;5109530;27;46216;-77
2023/03/15 07:27:24;;;;;;;;;1.75;1.50;;;;;21.43;31.73;101165.84;5108266;27;45258;-78
2023/03/15 07:29:49;;;;;;;;;1.50;1.00;;;;;21.46;31.57;101166.63;5092068;27;46127;-77
2023/03/15 07:32:14;;;;;;;;;0.75;0.75;;;;;21.50;31.40;101169.00;5102740;27;45843;-77
2023/03/15 07:34:40;;;;;;;;;3.25;1.50;;;;;21.54;32.13;101167.81;5083883;27;45542;-76
2023/03/15 07:37:05;;;;;;;;;2.50;2.00;;;;;21.58;31.54;101171.13;5101111;27;69509;-76
2023/03/15 07:39:31;;;;;;;;;3.00;1.00;;;;;21.56;32.08;101170.38;5081457;27;53662;-77
2023/03/15 07:41:58;;;;;;;;;2.00;1.00;;;;;21.65;31.96;101179.56;5124006;27;45506;-77
2023/03/15 07:44:23;;;;;;;;;1.25;0.50;;;;;21.68;31.98;101185.56;5090804;27;45572;-77
2023/03/15 07:46:49;;;;;;;;;1.50;0.75;;;;;21.71;32.02;101179.16;5104277;27;45789;-76
2023/03/15 07:49:15;;;;;;;;;1.50;1.00;;;;;21.69;32.13;101168.63;5081620;27;47195;-78
2023/03/15 07:51:41;;;;;;;;;2.00;1.00;;;;;21.80;32.49;101194.53;5100852;27;45381;-77
2023/03/15 07:54:06;;;;;;;;;1.50;1.25;;;;;21.84;32.54;101188.03;5092791;27;45246;-76
2023/03/15 07:56:32;;;;;;;;;0.00;0.00;;;;;21.87;32.53;101186.97;5083449;27;45513;-76
2023/03/15 07:58:57;;;;;;;;;1.75;1.75;;;;;21.86;32.53;101185.28;5084204;27;46199;-76
2023/03/15 08:01:22;;;;;;;;;4.50;1.00;;;;;21.92;32.25;101192.84;5079376;27;45527;-76
2023/03/15 08:03:48;;;;;;;;;1.00;0.00;;;;;21.96;32.29;101200.53;5096406;27;45386;-76
2023/03/15 08:06:13;;;;;;;;;2.50;0.00;;;;;21.93;32.62;101198.06;5088629;27;49979;-77
2023/03/15 08:08:39;;;;;;;;;1.00;1.00;;;;;21.98;32.51;101203.09;5086532;27;71445;-77
2023/03/15 08:11:05;;;;;;;;;2.00;1.00;;;;;22.02;32.58;101206.41;5098372;27;45449;-78
2023/03/15 08:13:30;;;;;;;;;1.50;1.50;;;;;22.09;32.73;101211.22;5081982;27;45406;-76
2023/03/15 08:15:56;;;;;;;;;1.00;1.00;;;;;22.10;32.33;101212.09;5100614;27;45467;-76
2023/03/15 08:18:21;;;;;;;;;1.50;0.25;;;;;22.10;32.60;101215.59;5077916;27;60991;-77
2023/03/15 08:20:46;;;;;;;;;1.00;1.00;;;;;22.14;32.99;101214.44;5090076;27;61161;-77
2023/03/15 08:23:15;;;;;;;;;1.75;1.75;;;;;22.17;32.61;101219.56;5089937;27;45625;-77
2023/03/15 08:25:41;;;;;;;;;1.00;1.00;;;;;22.21;33.06;101224.69;5087972;27;45288;-77
2023/03/15 08:28:06;;;;;;;;;1.00;0.00;;;;;22.20;32.53;101223.81;5088797;27;45776;-81
2023/03/15 08:30:32;;;;;;;;;1.50;1.00;;;;;22.24;32.77;101235.13;5096120;27;45436;-76
2023/03/15 08:32:57;;;;;;;;;0.00;0.00;;;;;22.24;32.89;101233.31;5115431;27;45520;-77
2023/03/15 08:35:22;;;;;;;;;1.00;1.00;;;;;22.26;32.90;101241.22;5080808;27;45391;-79
2023/03/15 08:37:48;;;;;;;;;1.25;0.75;;;;;22.28;33.30;101232.19;5090121;27;47249;-79
2023/03/15 08:40:15;;;;;;;;;2.50;1.00;;;;;22.33;32.94;101242.53;5088299;27;45311;-80
2023/03/15 08:42:42;;;;;;;;;3.00;1.00;;;;;22.37;33.37;101244.88;5076348;27;45538;-80
2023/03/15 08:45:09;;;;;;;;;2.25;0.00;;;;;22.33;32.86;101230.06;5115316;27;45383;-80
2023/03/15 08:47:34;;;;;;;;;0.50;0.00;;;;;22.41;32.95;101236.66;5095293;27;47250;-79
2023/03/15 08:50:27;;;;;;;;;1.00;1.00;;;;;22.46;32.99;101234.53;5075135;27;63090;-76
2023/03/15 08:52:52;;;;;;;;;3.25;0.25;;;;;22.47;33.04;101237.13;5083049;27;45640;-73
2023/03/15 08:55:18;;;;;;;;;1.00;1.00;;;;;22.46;33.13;101231.88;5081095;27;45429;-80
2023/03/15 08:57:43;;;;;;;;;1.00;1.00;;;;;22.47;33.12;101234.44;5084572;27;47370;-78
2023/03/15 09:00:19;;;;;;;;;2.75;1.00;;;;;22.58;32.80;101240.84;5111882;27;45263;-75
2023/03/15 09:02:47;;;;;;;;;1.50;1.00;;;;;22.63;32.93;101246.69;5114807;27;45398;-78
2023/03/15 09:05:15;;;;;;;;;0.75;0.75;;;;;22.67;33.02;101253.53;5095151;27;45473;-75
2023/03/15 09:07:41;;;;;;;;;0.50;0.50;;;;;22.66;32.84;101255.34;5090554;27;45308;-74
2023/03/15 09:10:08;;;;;;;;;3.00;1.50;;;;;22.72;32.73;101262.94;5084817;27;46004;-77
2023/03/15 09:12:34;;;;;;;;;1.00;1.00;;;;;22.69;32.89;101262.28;5100299;27;45426;-78
2023/03/15 09:14:59;;;;;;;;;2.00;1.00;;;;;22.76;33.15;101266.22;5079210;27;45603;-78
2023/03/15 09:17:25;;;;;;;;;2.25;0.50;;;;;22.78;33.18;101274.97;5091130;27;45245;-76
2023/03/15 09:19:51;;;;;;;;;2.00;1.25;;;;;22.74;32.90;101260.16;5112349;27;62715;-75
2023/03/15 09:22:16;;;;;;;;;4.00;2.00;;;;;22.80;33.14;101270.38;5084659;27;45380;-75
2023/03/15 09:24:42;;;;;;;;;5.00;5.00;;;;;22.80;32.79;101267.72;5087828;27;45521;-73
2023/03/15 09:27:07;;;;;;;;;2.00;2.00;;;;;22.82;33.17;101267.63;5109983;27;46058;-72
2023/03/15 09:29:33;;;;;;;;;1.00;1.00;;;;;22.82;32.90;101270.28;5115584;27;45310;-70
2023/03/15 09:32:00;;;;;;;;;2.75;1.00;;;;;22.83;33.27;101272.00;5119595;27;45571;-73
2023/03/15 09:34:26;;;;;;;;;1.50;1.00;;;;;22.80;32.75;101264.19;5097940;27;45378;-75
2023/03/15 09:36:51;;;;;;;;;1.00;0.75;;;;;22.83;32.98;101264.00;5087386;27;48063;-81
2023/03/15 09:39:18;;;;;;;;;1.75;1.00;;;;;22.86;33.07;101266.44;5101661;27;45435;-78
2023/03/15 09:41:50;;;;;;;;;0.75;0.25;;;;;22.87;33.03;101269.00;5086924;27;45903;-77
2023/03/15 09:44:51;;;;;;;;;0.75;0.00;;;;;22.85;32.63;101262.91;5095210;27;46431;-76
2023/03/15 09:47:32;;;;;;;;;1.75;1.75;;;;;22.87;33.01;101268.16;5086262;27;47777;-74
2023/03/15 09:50:16;;;;;;;;;4.50;3.25;;;;;22.90;32.87;101270.59;5122507;27;45314;-81
2023/03/15 09:52:54;;;;;;;;;2.00;1.00;;;;;22.90;33.39;101268.78;5120250;27;45474;-73
2023/03/15 09:55:22;;;;;;;;;4.00;1.00;;;;;22.87;33.38;101257.47;5083801;27;46236;-77
2023/03/15 09:57:54;;;;;;;;;3.00;1.75;;;;;22.93;32.83;101265.06;5096676;27;45643;-73
2023/03/15 10:00:22;;;;;;;;;0.00;0.00;;;;;22.92;33.23;101271.34;5091580;27;45622;-73
2023/03/15 10:03:00;;;;;;;;;1.00;1.00;;;;;22.86;33.01;101256.63;5099834;27;45552;-75
2023/03/15 10:05:38;;;;;;;;;2.50;1.00;;;;;22.92;33.23;101253.50;5087209;27;45562;-72
2023/03/15 10:08:09;;;;;;;;;2.25;1.00;;;;;22.97;33.12;101260.34;5090337;27;46547;-74
2023/03/15 10:10:39;;;;;;;;;0.75;0.00;;;;;23.01;32.97;101275.19;5084922;27;45706;-75
2023/03/15 10:13:20;;;;;;;;;1.50;1.00;;;;;23.02;32.92;101268.88;5074264;27;45467;-75
2023/03/15 10:16:06;;;;;;;;;0.75;0.75;;;;;23.03;32.65;101265.25;5115799;27;45477;-78
2023/03/15 10:18:45;;;;;;;;;1.00;1.00;;;;;23.01;33.01;101260.00;5118630;27;45384;-72
2023/03/15 10:21:16;;;;;;;;;2.00;1.00;;;;;23.01;32.94;101260.00;5094170;27;45399;-70
2023/03/15 10:23:44;;;;;;;;;1.00;1.00;;;;;23.04;33.29;101269.63;5086170;27;45280;-72
2023/03/15 10:26:11;;;;;;;;;1.50;1.00;;;;;23.03;32.79;101258.06;5068421;27;45542;-72
2023/03/15 10:28:37;;;;;;;;;0.75;0.00;;;;;23.02;33.08;101259.06;5092783;27;46060;-73
2023/03/15 10:31:15;;;;;;;;;2.50;2.00;;;;;23.07;32.96;101269.44;5098546;27;55459;-73
2023/03/15 10:33:42;;;;;;;;;1.50;0.50;;;;;23.06;33.01;101265.91;5094680;27;45463;-73
2023/03/15 10:36:19;;;;;;;;;2.25;1.50;;;;;23.05;33.09;101255.34;5102132;27;45522;-72
2023/03/15 10:38:47;;;;;;;;;0.25;0.00;;;;;23.05;32.70;101256.19;5089409;27;46727;-77
2023/03/15 10:41:17;;;;;;;;;1.50;1.00;;;;;23.06;32.57;101254.38;5086557;27;45454;-75
2023/03/15 10:43:57;;;;;;;;;0.25;0.25;;;;;23.05;32.92;101244.66;5094934;27;45527;-71
2023/03/15 10:46:23;;;;;;;;;2.75;0.50;;;;;23.07;33.00;101248.06;5093808;27;45320;-73
2023/03/15 10:48:52;;;;;;;;;2.50;0.00;;;;;23.07;33.06;101243.59;5083745;27;47892;-72
2023/03/15 10:51:32;;;;;;;;;1.00;0.75;;;;;23.05;32.91;101242.84;5101311;27;45667;-70
2023/03/15 10:54:00;;;;;;;;;2.25;1.00;;;;;23.06;32.78;101243.72;5114035;27;45374;-72
2023/03/15 10:56:31;;;;;;;;;1.00;1.00;;;;;23.02;32.97;101228.81;5083983;27;45328;-73
2023/03/15 10:58:57;;;;;;;;;2.00;0.00;;;;;23.03;32.71;101235.88;5084539;27;46618;-71
2023/03/15 11:01:28;;;;;;;;;1.00;0.75;;;;;23.05;32.90;101239.31;5085716;27;50560;-72
2023/03/15 11:04:17;;;;;;;;;0.75;0.75;;;;;23.05;32.64;101237.50;5093440;27;45482;-72
2023/03/15 11:06:54;;;;;;;;;1.50;1.00;;;;;23.06;32.79;101239.22;5081493;27;45395;-71
2023/03/15 11:09:21;;;;;;;;;0.25;0.25;;;;;23.08;32.82;101241.78;5094512;27;47021;-70
2023/03/15 11:11:56;;;;;;;;;1.50;1.00;;;;;23.07;32.73;101240.94;5078742;27;45736;-71
2023/03/15 11:14:21;;;;;;;;;1.00;1.00;;;;;23.09;33.05;101244.34;5083689;27;45339;-71
2023/03/15 11:16:53;;;;;;;;;0.00;0.00;;;;;23.07;32.68;101246.28;5076746;27;45952;-71
2023/03/15 11:19:22;;;;;;;;;1.00;0.00;;;;;23.07;33.18;101235.59;5077489;27;47135;-71
2023/03/15 11:21:48;;;;;;;;;1.25;1.00;;;;;23.10;32.95;101242.50;5104670;27;45461;-70
2023/03/15 11:24:40;;;;;;;;;2.75;1.00;;;;;23.14;32.63;101238.66;5093414;27;45542;-71